NKS2915 KDEN-KSLC
Flight info
| Callsign | NKS2915 |
|---|---|
| Flight time | 1h 9m |
| Altitude | 38000 |
| Route | ZIMMR4 CHNGY EKR PITTT2 |
| Aircraft | A20N/M-SDE2E3FGHIRWXY/LB1 |
Departure
| Time | 2026-05-01 07:41 |
|---|---|
| Airport | Denver International Airport (KDEN) |
Arrival
| Time | 2026-05-01 08:50 |
|---|---|
| Airport | Salt Lake City International Airport (KSLC) |
| Time | Latitude | Longitude | Altitude | Speed | Heading |
|---|---|---|---|---|---|
| 2026-05-01 07:23 | 39.86356 | -104.67687 | 5365 ft | 0 kts | 180° |
| 2026-05-01 07:26 | 39.86371 | -104.67686 | 5365 ft | 2 kts | 192° |
| 2026-05-01 07:26 | 39.86385 | -104.67680 | 5366 ft | 2 kts | 207° |
| 2026-05-01 07:26 | 39.86397 | -104.67669 | 5366 ft | 2 kts | 223° |
| 2026-05-01 07:27 | 39.86407 | -104.67654 | 5367 ft | 2 kts | 239° |
| 2026-05-01 07:27 | 39.86413 | -104.67636 | 5369 ft | 2 kts | 255° |
| 2026-05-01 07:27 | 39.86415 | -104.67619 | 5370 ft | 0 kts | 268° |
| 2026-05-01 07:28 | 39.86415 | -104.67662 | 5367 ft | 4 kts | 270° |
| 2026-05-01 07:28 | 39.86415 | -104.67677 | 5366 ft | 0 kts | 270° |
| 2026-05-01 07:28 | 39.86415 | -104.67678 | 5366 ft | 0 kts | 270° |
| 2026-05-01 07:31 | 39.86418 | -104.68093 | 5341 ft | 27 kts | 270° |
| 2026-05-01 07:32 | 39.86427 | -104.68575 | 5319 ft | 0 kts | 272° |
| 2026-05-01 07:32 | 39.86428 | -104.68580 | 5319 ft | 2 kts | 272° |
| 2026-05-01 07:33 | 39.86424 | -104.68564 | 5320 ft | 6 kts | 94° |
| 2026-05-01 07:33 | 39.86393 | -104.68515 | 5321 ft | 10 kts | 160° |
| 2026-05-01 07:33 | 39.86151 | -104.68510 | 5320 ft | 23 kts | 180° |
| 2026-05-01 07:34 | 39.85982 | -104.68513 | 5326 ft | 25 kts | 179° |
| 2026-05-01 07:34 | 39.85610 | -104.68518 | 5322 ft | 26 kts | 180° |
| 2026-05-01 07:34 | 39.85426 | -104.68519 | 5318 ft | 26 kts | 180° |
| 2026-05-01 07:35 | 39.85239 | -104.68520 | 5312 ft | 27 kts | 180° |
| 2026-05-01 07:35 | 39.85058 | -104.68573 | 5304 ft | 27 kts | 221° |
| 2026-05-01 07:35 | 39.84907 | -104.68747 | 5296 ft | 29 kts | 221° |
| 2026-05-01 07:35 | 39.84752 | -104.68926 | 5296 ft | 29 kts | 220° |
| 2026-05-01 07:36 | 39.84613 | -104.69084 | 5306 ft | 23 kts | 221° |
| 2026-05-01 07:36 | 39.84507 | -104.69206 | 5315 ft | 17 kts | 221° |
| 2026-05-01 07:36 | 39.84423 | -104.69302 | 5322 ft | 15 kts | 221° |
| 2026-05-01 07:36 | 39.84345 | -104.69392 | 5329 ft | 14 kts | 221° |
| 2026-05-01 07:37 | 39.84235 | -104.69534 | 5337 ft | 6 kts | 162° |
| 2026-05-01 07:37 | 39.84255 | -104.69471 | 5334 ft | 12 kts | 30° |
| 2026-05-01 07:37 | 39.84355 | -104.69379 | 5328 ft | 23 kts | 40° |
| 2026-05-01 07:38 | 39.84511 | -104.69200 | 5315 ft | 36 kts | 41° |
| 2026-05-01 07:38 | 39.84720 | -104.68961 | 5298 ft | 41 kts | 41° |
| 2026-05-01 07:38 | 39.85122 | -104.68527 | 5308 ft | 31 kts | 12° |
| 2026-05-01 07:39 | 39.85204 | -104.68710 | 5300 ft | 29 kts | 268° |
| 2026-05-01 07:39 | 39.85198 | -104.69002 | 5288 ft | 34 kts | 269° |
| 2026-05-01 07:39 | 39.85209 | -104.69598 | 5299 ft | 27 kts | 294° |
| 2026-05-01 07:40 | 39.85412 | -104.69657 | 5289 ft | 53 kts | 359° |
| 2026-05-01 07:40 | 39.86041 | -104.69652 | 5268 ft | 123 kts | 360° |
| 2026-05-01 07:40 | 39.87100 | -104.69641 | 5292 ft | 176 kts | 358° |
| 2026-05-01 07:40 | 39.88367 | -104.69626 | 5714 ft | 187 kts | 359° |
| 2026-05-01 07:41 | 39.89694 | -104.69570 | 6321 ft | 195 kts | 1° |
| 2026-05-01 07:41 | 39.91042 | -104.69493 | 6973 ft | 198 kts | 1° |
| 2026-05-01 07:41 | 39.93473 | -104.71009 | 7798 ft | 215 kts | 299° |
| 2026-05-01 07:42 | 39.93858 | -104.72894 | 8174 ft | 226 kts | 268° |
| 2026-05-01 07:42 | 39.93676 | -104.75005 | 8545 ft | 244 kts | 261° |
| 2026-05-01 07:42 | 39.93446 | -104.77264 | 8953 ft | 262 kts | 263° |
| 2026-05-01 07:42 | 39.93306 | -104.79723 | 9365 ft | 280 kts | 267° |
| 2026-05-01 07:43 | 39.93250 | -104.82264 | 9796 ft | 289 kts | 269° |
| 2026-05-01 07:43 | 39.93240 | -104.84927 | 9945 ft | 292 kts | 270° |
| 2026-05-01 07:43 | 39.93268 | -104.90196 | 9951 ft | 291 kts | 270° |
| 2026-05-01 07:44 | 39.93381 | -104.95528 | 10844 ft | 300 kts | 272° |
| 2026-05-01 07:44 | 39.93515 | -105.00892 | 12597 ft | 299 kts | 272° |
| 2026-05-01 07:45 | 39.93581 | -105.03564 | 13375 ft | 301 kts | 272° |
| 2026-05-01 07:45 | 39.93647 | -105.06305 | 14133 ft | 304 kts | 272° |
| 2026-05-01 07:45 | 39.93710 | -105.09083 | 14903 ft | 306 kts | 272° |
| 2026-05-01 07:45 | 39.93771 | -105.11825 | 15661 ft | 307 kts | 272° |
| 2026-05-01 07:46 | 39.93831 | -105.14620 | 16396 ft | 309 kts | 272° |
| 2026-05-01 07:46 | 39.93891 | -105.17396 | 17110 ft | 311 kts | 272° |
| 2026-05-01 07:46 | 39.94066 | -105.23000 | 18494 ft | 314 kts | 276° |
| 2026-05-01 07:47 | 39.94286 | -105.25842 | 19173 ft | 316 kts | 276° |
| 2026-05-01 07:47 | 39.94510 | -105.28678 | 19838 ft | 317 kts | 276° |
| 2026-05-01 07:47 | 39.94733 | -105.31509 | 20481 ft | 319 kts | 276° |
| 2026-05-01 07:47 | 39.94957 | -105.34370 | 21111 ft | 322 kts | 276° |
| 2026-05-01 07:48 | 39.95410 | -105.40177 | 22356 ft | 326 kts | 276° |
| 2026-05-01 07:48 | 39.95645 | -105.43150 | 22762 ft | 334 kts | 276° |
| 2026-05-01 07:48 | 39.95882 | -105.46167 | 23231 ft | 340 kts | 276° |
| 2026-05-01 07:49 | 39.96124 | -105.49251 | 23816 ft | 343 kts | 276° |
| 2026-05-01 07:49 | 39.96603 | -105.55421 | 24916 ft | 348 kts | 276° |
| 2026-05-01 07:49 | 39.96844 | -105.58560 | 25424 ft | 351 kts | 276° |
| 2026-05-01 07:50 | 39.97087 | -105.61755 | 25938 ft | 354 kts | 276° |
| 2026-05-01 07:50 | 39.97549 | -105.68157 | 26942 ft | 359 kts | 274° |
| 2026-05-01 07:50 | 39.97724 | -105.71367 | 27427 ft | 361 kts | 274° |
| 2026-05-01 07:51 | 39.97890 | -105.74657 | 27880 ft | 364 kts | 274° |
| 2026-05-01 07:51 | 39.98053 | -105.77914 | 28281 ft | 366 kts | 274° |
| 2026-05-01 07:51 | 39.98217 | -105.81222 | 28713 ft | 368 kts | 274° |
| 2026-05-01 07:52 | 39.98548 | -105.87885 | 29543 ft | 372 kts | 274° |
| 2026-05-01 07:52 | 39.98714 | -105.91243 | 29945 ft | 374 kts | 275° |
| 2026-05-01 07:52 | 39.98882 | -105.94666 | 30296 ft | 376 kts | 275° |
| 2026-05-01 07:53 | 39.99211 | -106.01440 | 30964 ft | 379 kts | 274° |
| 2026-05-01 07:53 | 39.99376 | -106.04858 | 31280 ft | 380 kts | 274° |
| 2026-05-01 07:53 | 39.99540 | -106.08295 | 31575 ft | 381 kts | 274° |
| 2026-05-01 07:53 | 39.99703 | -106.11723 | 31879 ft | 382 kts | 274° |
| 2026-05-01 07:54 | 40.00025 | -106.18627 | 32421 ft | 383 kts | 274° |
| 2026-05-01 07:55 | 40.00497 | -106.28970 | 33075 ft | 384 kts | 274° |
| 2026-05-01 07:55 | 40.00805 | -106.35912 | 33524 ft | 384 kts | 274° |
| 2026-05-01 07:56 | 40.01263 | -106.46303 | 34224 ft | 383 kts | 274° |
| 2026-05-01 07:56 | 40.01585 | -106.53188 | 34753 ft | 382 kts | 274° |
| 2026-05-01 07:57 | 40.01744 | -106.56651 | 34959 ft | 382 kts | 274° |
| 2026-05-01 07:57 | 40.02049 | -106.63496 | 35463 ft | 380 kts | 274° |
| 2026-05-01 07:58 | 40.02345 | -106.70394 | 35890 ft | 381 kts | 274° |
| 2026-05-01 07:58 | 40.02634 | -106.77253 | 36313 ft | 380 kts | 274° |
| 2026-05-01 07:59 | 40.02918 | -106.84100 | 36734 ft | 379 kts | 273° |
| 2026-05-01 07:59 | 40.03194 | -106.90911 | 37090 ft | 379 kts | 274° |
| 2026-05-01 08:00 | 40.03744 | -107.04667 | 37644 ft | 382 kts | 274° |
| 2026-05-01 08:01 | 40.04146 | -107.15051 | 37983 ft | 385 kts | 274° |
| 2026-05-01 08:01 | 40.04278 | -107.18510 | 38076 ft | 386 kts | 273° |
| 2026-05-01 08:02 | 40.04671 | -107.29002 | 38169 ft | 388 kts | 274° |
| 2026-05-01 08:03 | 40.05056 | -107.39532 | 38184 ft | 388 kts | 273° |
| 2026-05-01 08:03 | 40.05432 | -107.50073 | 38198 ft | 390 kts | 273° |
| 2026-05-01 08:04 | 40.05914 | -107.64136 | 38199 ft | 389 kts | 273° |
| 2026-05-01 08:05 | 40.06261 | -107.74699 | 38155 ft | 389 kts | 272° |
| 2026-05-01 08:06 | 40.06592 | -107.85258 | 38155 ft | 389 kts | 273° |
| 2026-05-01 08:07 | 40.07140 | -107.99349 | 38159 ft | 390 kts | 274° |
| 2026-05-01 08:08 | 40.07650 | -108.09912 | 38159 ft | 391 kts | 274° |
| 2026-05-01 08:09 | 40.08285 | -108.24052 | 38145 ft | 391 kts | 274° |
| 2026-05-01 08:09 | 40.08593 | -108.31114 | 38151 ft | 393 kts | 274° |
| 2026-05-01 08:10 | 40.09195 | -108.45312 | 38147 ft | 394 kts | 274° |
| 2026-05-01 08:11 | 40.09778 | -108.59563 | 38136 ft | 394 kts | 274° |
| 2026-05-01 08:12 | 40.10199 | -108.70249 | 38146 ft | 395 kts | 273° |
| 2026-05-01 08:13 | 40.10606 | -108.80934 | 38144 ft | 395 kts | 273° |
| 2026-05-01 08:13 | 40.11024 | -108.91631 | 38147 ft | 395 kts | 273° |
| 2026-05-01 08:14 | 40.11311 | -108.98753 | 38152 ft | 397 kts | 274° |
| 2026-05-01 08:14 | 40.11587 | -109.05969 | 38162 ft | 397 kts | 274° |
| 2026-05-01 08:15 | 40.11982 | -109.16695 | 38155 ft | 397 kts | 274° |
| 2026-05-01 08:16 | 40.12237 | -109.23872 | 38160 ft | 398 kts | 273° |
| 2026-05-01 08:16 | 40.12490 | -109.31113 | 38167 ft | 398 kts | 273° |
| 2026-05-01 08:17 | 40.12734 | -109.38272 | 38166 ft | 398 kts | 274° |
| 2026-05-01 08:17 | 40.12975 | -109.45487 | 38169 ft | 398 kts | 274° |
| 2026-05-01 08:18 | 40.13213 | -109.52708 | 38168 ft | 399 kts | 274° |
| 2026-05-01 08:19 | 40.13674 | -109.67137 | 38175 ft | 399 kts | 273° |
| 2026-05-01 08:19 | 40.13896 | -109.74355 | 38172 ft | 400 kts | 273° |
| 2026-05-01 08:20 | 40.14113 | -109.81580 | 38180 ft | 401 kts | 273° |
| 2026-05-01 08:20 | 40.14324 | -109.88808 | 38177 ft | 401 kts | 273° |
| 2026-05-01 08:21 | 40.14531 | -109.96107 | 38182 ft | 402 kts | 273° |
| 2026-05-01 08:21 | 40.14729 | -110.03352 | 38182 ft | 402 kts | 273° |
| 2026-05-01 08:22 | 40.14928 | -110.10600 | 38184 ft | 401 kts | 273° |
| 2026-05-01 08:22 | 40.14971 | -110.17870 | 37886 ft | 402 kts | 271° |
| 2026-05-01 08:22 | 40.14951 | -110.21531 | 37499 ft | 398 kts | 271° |
| 2026-05-01 08:23 | 40.14925 | -110.25086 | 37043 ft | 395 kts | 271° |
| 2026-05-01 08:23 | 40.14898 | -110.28638 | 36502 ft | 395 kts | 271° |
| 2026-05-01 08:23 | 40.14869 | -110.32207 | 35948 ft | 395 kts | 271° |
| 2026-05-01 08:23 | 40.14839 | -110.35810 | 35468 ft | 395 kts | 271° |
| 2026-05-01 08:24 | 40.14807 | -110.39389 | 34975 ft | 396 kts | 271° |
| 2026-05-01 08:24 | 40.14773 | -110.42931 | 34413 ft | 397 kts | 271° |
| 2026-05-01 08:24 | 40.14738 | -110.46532 | 33842 ft | 398 kts | 271° |
| 2026-05-01 08:24 | 40.14702 | -110.50169 | 33262 ft | 400 kts | 271° |
| 2026-05-01 08:25 | 40.14665 | -110.53745 | 32761 ft | 399 kts | 271° |
| 2026-05-01 08:25 | 40.14625 | -110.57385 | 32275 ft | 398 kts | 271° |
| 2026-05-01 08:25 | 40.14586 | -110.60936 | 31795 ft | 397 kts | 271° |
| 2026-05-01 08:25 | 40.14544 | -110.64544 | 31295 ft | 397 kts | 271° |
| 2026-05-01 08:26 | 40.14501 | -110.68127 | 30775 ft | 397 kts | 270° |
| 2026-05-01 08:26 | 40.14457 | -110.71706 | 30181 ft | 397 kts | 270° |
| 2026-05-01 08:26 | 40.14410 | -110.75324 | 29631 ft | 395 kts | 270° |
| 2026-05-01 08:26 | 40.14364 | -110.78845 | 29152 ft | 392 kts | 270° |
| 2026-05-01 08:27 | 40.14317 | -110.82398 | 28674 ft | 388 kts | 271° |
| 2026-05-01 08:27 | 40.14269 | -110.85869 | 28215 ft | 385 kts | 270° |
| 2026-05-01 08:27 | 40.14220 | -110.89345 | 27757 ft | 382 kts | 271° |
| 2026-05-01 08:27 | 40.14169 | -110.92811 | 27290 ft | 379 kts | 271° |
| 2026-05-01 08:28 | 40.14119 | -110.96228 | 26842 ft | 376 kts | 271° |
| 2026-05-01 08:28 | 40.14068 | -110.99581 | 26392 ft | 373 kts | 271° |
| 2026-05-01 08:28 | 40.14015 | -111.02975 | 25938 ft | 371 kts | 271° |
| 2026-05-01 08:28 | 40.13961 | -111.06297 | 25508 ft | 368 kts | 271° |
| 2026-05-01 08:29 | 40.13907 | -111.09612 | 25063 ft | 366 kts | 271° |
| 2026-05-01 08:29 | 40.13852 | -111.12913 | 24617 ft | 364 kts | 271° |
| 2026-05-01 08:29 | 40.13799 | -111.16199 | 24172 ft | 362 kts | 271° |
| 2026-05-01 08:29 | 40.13746 | -111.19451 | 23733 ft | 360 kts | 271° |
| 2026-05-01 08:30 | 40.13693 | -111.22696 | 23313 ft | 357 kts | 271° |
| 2026-05-01 08:30 | 40.13644 | -111.25946 | 22901 ft | 355 kts | 271° |
| 2026-05-01 08:30 | 40.13594 | -111.29131 | 22495 ft | 352 kts | 271° |
| 2026-05-01 08:30 | 40.13541 | -111.32300 | 22084 ft | 350 kts | 271° |
| 2026-05-01 08:31 | 40.13483 | -111.35489 | 21670 ft | 348 kts | 270° |
| 2026-05-01 08:31 | 40.13425 | -111.38598 | 21267 ft | 346 kts | 270° |
| 2026-05-01 08:31 | 40.13365 | -111.41735 | 20851 ft | 344 kts | 270° |
| 2026-05-01 08:31 | 40.13305 | -111.44819 | 20454 ft | 342 kts | 270° |
| 2026-05-01 08:32 | 40.13247 | -111.47922 | 20048 ft | 340 kts | 270° |
| 2026-05-01 08:32 | 40.13188 | -111.51018 | 19642 ft | 338 kts | 270° |
| 2026-05-01 08:32 | 40.13310 | -111.54052 | 19234 ft | 335 kts | 282° |
| 2026-05-01 08:32 | 40.13914 | -111.56937 | 19024 ft | 332 kts | 294° |
| 2026-05-01 08:33 | 40.14872 | -111.59687 | 19054 ft | 334 kts | 297° |
| 2026-05-01 08:33 | 40.15886 | -111.62396 | 19080 ft | 334 kts | 298° |
| 2026-05-01 08:33 | 40.16909 | -111.65123 | 19104 ft | 334 kts | 297° |
| 2026-05-01 08:33 | 40.17925 | -111.67854 | 19131 ft | 334 kts | 297° |
| 2026-05-01 08:34 | 40.18934 | -111.70569 | 19144 ft | 334 kts | 297° |
| 2026-05-01 08:34 | 40.19956 | -111.73322 | 19147 ft | 335 kts | 297° |
| 2026-05-01 08:34 | 40.20960 | -111.76040 | 19145 ft | 335 kts | 297° |
| 2026-05-01 08:34 | 40.21974 | -111.78796 | 19136 ft | 335 kts | 297° |
| 2026-05-01 08:35 | 40.22980 | -111.81541 | 18914 ft | 337 kts | 296° |
| 2026-05-01 08:35 | 40.23988 | -111.84292 | 18445 ft | 337 kts | 297° |
| 2026-05-01 08:35 | 40.24993 | -111.87036 | 18017 ft | 335 kts | 297° |
| 2026-05-01 08:35 | 40.25988 | -111.89752 | 17605 ft | 333 kts | 297° |
| 2026-05-01 08:36 | 40.27060 | -111.92447 | 17184 ft | 331 kts | 306° |
| 2026-05-01 08:36 | 40.28576 | -111.94650 | 16850 ft | 323 kts | 322° |
| 2026-05-01 08:36 | 40.30432 | -111.96255 | 16867 ft | 322 kts | 330° |
| 2026-05-01 08:36 | 40.32374 | -111.97710 | 16889 ft | 322 kts | 331° |
| 2026-05-01 08:37 | 40.34329 | -111.99158 | 16907 ft | 323 kts | 331° |
| 2026-05-01 08:37 | 40.36280 | -112.00617 | 16917 ft | 323 kts | 331° |
| 2026-05-01 08:37 | 40.38220 | -112.02077 | 16575 ft | 325 kts | 330° |
| 2026-05-01 08:37 | 40.40194 | -112.03559 | 16140 ft | 324 kts | 333° |
| 2026-05-01 08:38 | 40.42261 | -112.04696 | 15724 ft | 322 kts | 344° |
| 2026-05-01 08:38 | 40.44447 | -112.05275 | 15327 ft | 320 kts | 353° |
| 2026-05-01 08:38 | 40.46649 | -112.05583 | 14947 ft | 318 kts | 355° |
| 2026-05-01 08:38 | 40.48831 | -112.05853 | 14564 ft | 316 kts | 355° |
| 2026-05-01 08:39 | 40.51011 | -112.06127 | 14180 ft | 315 kts | 355° |
| 2026-05-01 08:39 | 40.53178 | -112.06408 | 13799 ft | 314 kts | 355° |
| 2026-05-01 08:39 | 40.55344 | -112.06694 | 13400 ft | 313 kts | 355° |
| 2026-05-01 08:39 | 40.57521 | -112.06986 | 13017 ft | 311 kts | 355° |
| 2026-05-01 08:40 | 40.61795 | -112.07558 | 12258 ft | 308 kts | 355° |
| 2026-05-01 08:40 | 40.63914 | -112.07838 | 11908 ft | 304 kts | 356° |
| 2026-05-01 08:40 | 40.66008 | -112.08086 | 11903 ft | 301 kts | 356° |
| 2026-05-01 08:41 | 40.68106 | -112.08325 | 11911 ft | 302 kts | 356° |
| 2026-05-01 08:41 | 40.70173 | -112.08561 | 11866 ft | 303 kts | 356° |
| 2026-05-01 08:41 | 40.72293 | -112.08806 | 11450 ft | 304 kts | 356° |
| 2026-05-01 08:41 | 40.74389 | -112.09051 | 11127 ft | 299 kts | 356° |
| 2026-05-01 08:42 | 40.76398 | -112.09288 | 11098 ft | 284 kts | 356° |
| 2026-05-01 08:42 | 40.78311 | -112.09517 | 11072 ft | 269 kts | 356° |
| 2026-05-01 08:42 | 40.80129 | -112.09735 | 11036 ft | 255 kts | 356° |
| 2026-05-01 08:42 | 40.81879 | -112.09944 | 11000 ft | 246 kts | 356° |
| 2026-05-01 08:43 | 40.83567 | -112.10142 | 10984 ft | 246 kts | 356° |
| 2026-05-01 08:43 | 40.85298 | -112.10338 | 10984 ft | 246 kts | 356° |
| 2026-05-01 08:43 | 40.87008 | -112.10532 | 10983 ft | 246 kts | 356° |
| 2026-05-01 08:43 | 40.88714 | -112.10731 | 10916 ft | 242 kts | 356° |
| 2026-05-01 08:44 | 40.90384 | -112.10927 | 10592 ft | 243 kts | 356° |
| 2026-05-01 08:44 | 40.92099 | -112.11129 | 10249 ft | 243 kts | 356° |
| 2026-05-01 08:44 | 40.93776 | -112.11328 | 9947 ft | 242 kts | 357° |
| 2026-05-01 08:44 | 40.95486 | -112.11532 | 9646 ft | 240 kts | 357° |
| 2026-05-01 08:45 | 40.97165 | -112.11518 | 9311 ft | 237 kts | 17° |
| 2026-05-01 08:45 | 40.98569 | -112.10487 | 9025 ft | 230 kts | 49° |
| 2026-05-01 08:45 | 40.99298 | -112.08650 | 8856 ft | 222 kts | 79° |
| 2026-05-01 08:45 | 40.99410 | -112.06638 | 8703 ft | 215 kts | 88° |
| 2026-05-01 08:46 | 40.99379 | -112.04671 | 8459 ft | 212 kts | 90° |
| 2026-05-01 08:46 | 40.99322 | -112.02711 | 8146 ft | 213 kts | 96° |
| 2026-05-01 08:46 | 40.98751 | -112.00872 | 7787 ft | 216 kts | 131° |
| 2026-05-01 08:46 | 40.97488 | -111.99789 | 7423 ft | 219 kts | 161° |
| 2026-05-01 08:47 | 40.95971 | -111.99406 | 7127 ft | 221 kts | 172° |
| 2026-05-01 08:47 | 40.94425 | -111.99255 | 6842 ft | 220 kts | 174° |
| 2026-05-01 08:47 | 40.92886 | -111.99124 | 6554 ft | 219 kts | 173° |
| 2026-05-01 08:47 | 40.91415 | -111.98968 | 6360 ft | 205 kts | 173° |
| 2026-05-01 08:48 | 40.90030 | -111.98804 | 6054 ft | 194 kts | 172° |
| 2026-05-01 08:48 | 40.88739 | -111.98645 | 5802 ft | 181 kts | 172° |
| 2026-05-01 08:48 | 40.87506 | -111.98495 | 5540 ft | 171 kts | 172° |
| 2026-05-01 08:48 | 40.86359 | -111.98360 | 5304 ft | 160 kts | 171° |
| 2026-05-01 08:49 | 40.85271 | -111.98230 | 5106 ft | 156 kts | 171° |
| 2026-05-01 08:49 | 40.84199 | -111.98103 | 4919 ft | 155 kts | 171° |
| 2026-05-01 08:49 | 40.83122 | -111.97976 | 4722 ft | 155 kts | 171° |
| 2026-05-01 08:49 | 40.82062 | -111.97855 | 4518 ft | 154 kts | 172° |
| 2026-05-01 08:50 | 40.80986 | -111.97726 | 4325 ft | 152 kts | 172° |
| 2026-05-01 08:50 | 40.79972 | -111.97607 | 4230 ft | 124 kts | 174° |
| 2026-05-01 08:50 | 40.79404 | -111.97533 | 4226 ft | 64 kts | 175° |
| 2026-05-01 08:50 | 40.79131 | -111.97584 | 4226 ft | 32 kts | 203° |
| 2026-05-01 08:51 | 40.79016 | -111.97653 | 4226 ft | 9 kts | 205° |
| 2026-05-01 08:51 | 40.78952 | -111.97688 | 4226 ft | 10 kts | 191° |
| 2026-05-01 08:51 | 40.78878 | -111.97696 | 4226 ft | 11 kts | 177° |
| 2026-05-01 08:51 | 40.78830 | -111.97750 | 4226 ft | 10 kts | 259° |
| 2026-05-01 08:52 | 40.78820 | -111.97853 | 4226 ft | 12 kts | 262° |
| 2026-05-01 08:52 | 40.78806 | -111.97976 | 4226 ft | 14 kts | 265° |
| 2026-05-01 08:52 | 40.78797 | -111.98118 | 4227 ft | 16 kts | 265° |
| 2026-05-01 08:52 | 40.78786 | -111.98277 | 4226 ft | 17 kts | 265° |
| 2026-05-01 08:53 | 40.78783 | -111.98397 | 4226 ft | 7 kts | 295° |
| 2026-05-01 08:53 | 40.78812 | -111.98422 | 4226 ft | 5 kts | 348° |
| 2026-05-01 08:53 | 40.78847 | -111.98428 | 4226 ft | 3 kts | 354° |
| 2026-05-01 08:53 | 40.78853 | -111.98428 | 4226 ft | 0 kts | 354° |
| 2026-05-01 08:54 | 40.78860 | -111.98429 | 4226 ft | 0 kts | 354° |
| 2026-05-01 08:54 | 40.78861 | -111.98429 | 4226 ft | 0 kts | 354° |